sensor_id;sensor_type;location;lat;lon;timestamp;pressure;altitude;pressure_sealevel;temperature;humidity
39051;BME280;24805;55.852;37.644;2023-02-05T00:04:13;100038.28;;;1.49;60.84
39051;BME280;24805;55.852;37.644;2023-02-05T00:09:15;100041.81;;;1.48;61.11
39051;BME280;24805;55.852;37.644;2023-02-05T00:14:17;100052.38;;;1.46;61.05
39051;BME280;24805;55.852;37.644;2023-02-05T00:19:19;100042.88;;;1.45;60.77
39051;BME280;24805;55.852;37.644;2023-02-05T00:24:21;100043.81;;;1.44;61.13
39051;BME280;24805;55.852;37.644;2023-02-05T00:29:23;100047.38;;;1.43;62.12
39051;BME280;24805;55.852;37.644;2023-02-05T00:34:25;100056.25;;;1.41;62.15
39051;BME280;24805;55.852;37.644;2023-02-05T00:39:27;100041.34;;;1.30;61.35
39051;BME280;24805;55.852;37.644;2023-02-05T00:44:29;100052.81;;;1.40;61.27
39051;BME280;24805;55.852;37.644;2023-02-05T00:49:31;100062.47;;;1.40;60.66
39051;BME280;24805;55.852;37.644;2023-02-05T00:54:33;100060.88;;;1.37;61.17
39051;BME280;24805;55.852;37.644;2023-02-05T00:59:35;100028.88;;;1.21;60.57
39051;BME280;24805;55.852;37.644;2023-02-05T01:04:37;100061.50;;;1.28;60.58
39051;BME280;24805;55.852;37.644;2023-02-05T01:09:39;100065.16;;;1.25;60.58
39051;BME280;24805;55.852;37.644;2023-02-05T01:14:41;100064.44;;;1.23;60.47
39051;BME280;24805;55.852;37.644;2023-02-05T01:19:43;100077.50;;;1.23;60.42
39051;BME280;24805;55.852;37.644;2023-02-05T01:24:46;100069.06;;;1.20;60.68
39051;BME280;24805;55.852;37.644;2023-02-05T01:29:48;100075.44;;;1.16;60.64
39051;BME280;24805;55.852;37.644;2023-02-05T01:34:50;100067.78;;;1.13;60.91
39051;BME280;24805;55.852;37.644;2023-02-05T01:39:52;100074.78;;;1.12;60.42
39051;BME280;24805;55.852;37.644;2023-02-05T01:50:38;100082.00;;;1.21;60.80
39051;BME280;24805;55.852;37.644;2023-02-05T01:55:44;100073.97;;;1.12;61.08
39051;BME280;24805;55.852;37.644;2023-02-05T02:00:50;100091.91;;;1.03;61.05
39051;BME280;24805;55.852;37.644;2023-02-05T02:05:53;100090.34;;;1.01;60.84
39051;BME280;24805;55.852;37.644;2023-02-05T02:10:57;100093.09;;;0.99;61.87
39051;BME280;24805;55.852;37.644;2023-02-05T02:16:00;100102.06;;;0.95;61.92
39051;BME280;24805;55.852;37.644;2023-02-05T02:26:20;100098.00;;;1.17;62.27
39051;BME280;24805;55.852;37.644;2023-02-05T02:31:41;100105.41;;;1.23;61.51
39051;BME280;24805;55.852;37.644;2023-02-05T02:41:56;100104.91;;;1.18;62.00
39051;BME280;24805;55.852;37.644;2023-02-05T02:47:09;100113.91;;;1.14;62.09
39051;BME280;24805;55.852;37.644;2023-02-05T02:52:16;100107.63;;;1.16;61.70
39051;BME280;24805;55.852;37.644;2023-02-05T02:57:23;100104.06;;;1.17;62.32
39051;BME280;24805;55.852;37.644;2023-02-05T03:02:30;100109.91;;;1.21;62.25
39051;BME280;24805;55.852;37.644;2023-02-05T03:07:36;100107.84;;;1.13;60.98
39051;BME280;24805;55.852;37.644;2023-02-05T03:12:40;100117.84;;;1.07;60.68
39051;BME280;24805;55.852;37.644;2023-02-05T03:17:43;100122.34;;;1.04;60.96
39051;BME280;24805;55.852;37.644;2023-02-05T03:22:46;100118.25;;;1.00;60.24
39051;BME280;24805;55.852;37.644;2023-02-05T03:27:50;100127.06;;;0.99;60.67
39051;BME280;24805;55.852;37.644;2023-02-05T03:33:20;100118.78;;;1.06;60.12
39051;BME280;24805;55.852;37.644;2023-02-05T03:44:04;100116.75;;;0.84;59.85
39051;BME280;24805;55.852;37.644;2023-02-05T03:49:23;100119.25;;;0.73;59.96
39051;BME280;24805;55.852;37.644;2023-02-05T03:59:51;100122.72;;;0.46;60.04
39051;BME280;24805;55.852;37.644;2023-02-05T04:04:54;100118.63;;;0.42;60.10
39051;BME280;24805;55.852;37.644;2023-02-05T04:09:56;100130.13;;;0.40;59.36
39051;BME280;24805;55.852;37.644;2023-02-05T04:14:59;100126.97;;;0.34;59.56
39051;BME280;24805;55.852;37.644;2023-02-05T04:20:02;100134.03;;;0.32;59.46
39051;BME280;24805;55.852;37.644;2023-02-05T04:25:05;100140.19;;;0.31;59.77
39051;BME280;24805;55.852;37.644;2023-02-05T04:30:08;100137.50;;;0.33;59.93
39051;BME280;24805;55.852;37.644;2023-02-05T04:35:15;100154.41;;;0.40;59.27
39051;BME280;24805;55.852;37.644;2023-02-05T04:40:18;100160.28;;;0.44;59.06
39051;BME280;24805;55.852;37.644;2023-02-05T04:45:20;100160.94;;;0.47;58.98
39051;BME280;24805;55.852;37.644;2023-02-05T04:50:23;100162.81;;;0.45;59.39
39051;BME280;24805;55.852;37.644;2023-02-05T04:55:25;100171.66;;;0.43;59.54
39051;BME280;24805;55.852;37.644;2023-02-05T05:00:27;100184.63;;;0.44;59.55
39051;BME280;24805;55.852;37.644;2023-02-05T05:05:29;100185.56;;;0.43;58.65
39051;BME280;24805;55.852;37.644;2023-02-05T05:10:32;100183.78;;;0.44;59.38
39051;BME280;24805;55.852;37.644;2023-02-05T05:15:34;100193.38;;;0.43;59.64
39051;BME280;24805;55.852;37.644;2023-02-05T05:20:36;100192.34;;;0.46;59.58
39051;BME280;24805;55.852;37.644;2023-02-05T05:25:46;100199.81;;;0.52;59.11
39051;BME280;24805;55.852;37.644;2023-02-05T05:30:48;100200.69;;;0.38;59.28
39051;BME280;24805;55.852;37.644;2023-02-05T05:35:50;100203.97;;;0.27;59.08
39051;BME280;24805;55.852;37.644;2023-02-05T05:40:52;100210.84;;;0.28;59.22
39051;BME280;24805;55.852;37.644;2023-02-05T05:46:18;100226.25;;;0.33;59.44
39051;BME280;24805;55.852;37.644;2023-02-05T05:51:25;100228.19;;;0.29;59.36
39051;BME280;24805;55.852;37.644;2023-02-05T05:56:27;100222.97;;;0.29;59.68
39051;BME280;24805;55.852;37.644;2023-02-05T06:01:29;100236.41;;;0.38;59.11
39051;BME280;24805;55.852;37.644;2023-02-05T06:06:32;100208.63;;;0.37;58.72
39051;BME280;24805;55.852;37.644;2023-02-05T06:11:34;100234.50;;;0.54;58.92
39051;BME280;24805;55.852;37.644;2023-02-05T06:16:36;100240.16;;;0.60;58.50
39051;BME280;24805;55.852;37.644;2023-02-05T06:21:38;100238.94;;;0.66;57.99
39051;BME280;24805;55.852;37.644;2023-02-05T06:26:40;100247.97;;;0.75;58.13
39051;BME280;24805;55.852;37.644;2023-02-05T06:31:42;100250.16;;;0.81;57.41
39051;BME280;24805;55.852;37.644;2023-02-05T06:36:45;100246.34;;;0.86;57.57
39051;BME280;24805;55.852;37.644;2023-02-05T06:41:47;100256.41;;;0.92;57.35
39051;BME280;24805;55.852;37.644;2023-02-05T06:46:49;100262.94;;;0.99;56.88
39051;BME280;24805;55.852;37.644;2023-02-05T06:51:51;100266.06;;;1.04;56.90
39051;BME280;24805;55.852;37.644;2023-02-05T06:56:53;100281.53;;;1.08;56.94
39051;BME280;24805;55.852;37.644;2023-02-05T07:01:55;100272.75;;;1.09;56.62
39051;BME280;24805;55.852;37.644;2023-02-05T07:06:57;100276.41;;;1.06;56.29
39051;BME280;24805;55.852;37.644;2023-02-05T07:12:00;100281.91;;;1.16;56.53
39051;BME280;24805;55.852;37.644;2023-02-05T07:17:02;100277.00;;;1.24;56.46
39051;BME280;24805;55.852;37.644;2023-02-05T07:22:04;100293.88;;;1.45;55.70
39051;BME280;24805;55.852;37.644;2023-02-05T07:27:06;100280.53;;;1.62;55.18
39051;BME280;24805;55.852;37.644;2023-02-05T07:32:08;100290.78;;;1.65;54.54
39051;BME280;24805;55.852;37.644;2023-02-05T07:37:11;100291.94;;;1.61;54.95
39051;BME280;24805;55.852;37.644;2023-02-05T07:42:13;100292.38;;;1.68;54.83
39051;BME280;24805;55.852;37.644;2023-02-05T07:47:23;100295.31;;;1.89;54.38
39051;BME280;24805;55.852;37.644;2023-02-05T07:52:25;100294.91;;;2.33;53.70
39051;BME280;24805;55.852;37.644;2023-02-05T07:57:27;100298.16;;;2.86;52.78
39051;BME280;24805;55.852;37.644;2023-02-05T08:02:29;100305.47;;;3.41;51.74
39051;BME280;24805;55.852;37.644;2023-02-05T08:07:31;100303.34;;;5.04;50.45
39051;BME280;24805;55.852;37.644;2023-02-05T08:12:33;100292.75;;;9.36;44.48
39051;BME280;24805;55.852;37.644;2023-02-05T08:17:35;100311.06;;;13.42;36.40
39051;BME280;24805;55.852;37.644;2023-02-05T08:22:39;100288.84;;;14.77;32.19
39051;BME280;24805;55.852;37.644;2023-02-05T08:27:42;100303.34;;;16.04;29.83
39051;BME280;24805;55.852;37.644;2023-02-05T08:32:49;100305.97;;;18.48;26.63
39051;BME280;24805;55.852;37.644;2023-02-05T08:37:51;100306.03;;;17.88;25.41
39051;BME280;24805;55.852;37.644;2023-02-05T08:42:53;100306.72;;;16.19;26.95
39051;BME280;24805;55.852;37.644;2023-02-05T08:47:57;100303.78;;;13.82;29.65
39051;BME280;24805;55.852;37.644;2023-02-05T08:53:00;100307.91;;;11.57;32.64
39051;BME280;24805;55.852;37.644;2023-02-05T08:58:02;100312.22;;;11.58;33.27
39051;BME280;24805;55.852;37.644;2023-02-05T09:03:04;100312.22;;;10.06;34.73
39051;BME280;24805;55.852;37.644;2023-02-05T09:08:07;100311.50;;;9.60;35.48
39051;BME280;24805;55.852;37.644;2023-02-05T09:13:10;100312.72;;;9.48;36.11
39051;BME280;24805;55.852;37.644;2023-02-05T09:18:12;100321.47;;;9.13;36.50
39051;BME280;24805;55.852;37.644;2023-02-05T09:23:15;100322.81;;;8.99;36.62
39051;BME280;24805;55.852;37.644;2023-02-05T09:28:18;100320.06;;;8.91;36.58
39051;BME280;24805;55.852;37.644;2023-02-05T09:33:20;100327.50;;;9.05;36.43
39051;BME280;24805;55.852;37.644;2023-02-05T09:38:23;100326.63;;;9.14;36.07
39051;BME280;24805;55.852;37.644;2023-02-05T09:48:47;100326.50;;;10.56;34.24
39051;BME280;24805;55.852;37.644;2023-02-05T09:53:55;100326.28;;;10.84;33.71
39051;BME280;24805;55.852;37.644;2023-02-05T09:58:58;100321.03;;;12.15;32.73
39051;BME280;24805;55.852;37.644;2023-02-05T10:04:01;100319.00;;;15.58;29.32
39051;BME280;24805;55.852;37.644;2023-02-05T10:19:54;100329.09;;;19.71;22.35
39051;BME280;24805;55.852;37.644;2023-02-05T10:25:37;100323.09;;;21.53;19.96
39051;BME280;24805;55.852;37.644;2023-02-05T10:30:57;100321.13;;;22.84;19.75
39051;BME280;24805;55.852;37.644;2023-02-05T10:36:04;100317.84;;;23.22;18.72
39051;BME280;24805;55.852;37.644;2023-02-05T10:41:21;100313.56;;;23.99;18.20
39051;BME280;24805;55.852;37.644;2023-02-05T10:46:31;100316.50;;;23.64;17.66
39051;BME280;24805;55.852;37.644;2023-02-05T10:51:39;100316.00;;;21.82;18.61
39051;BME280;24805;55.852;37.644;2023-02-05T10:56:41;100311.75;;;18.51;20.79
39051;BME280;24805;55.852;37.644;2023-02-05T11:01:44;100314.72;;;16.69;22.96
39051;BME280;24805;55.852;37.644;2023-02-05T11:06:50;100317.13;;;16.29;24.03
39051;BME280;24805;55.852;37.644;2023-02-05T11:11:58;100322.50;;;15.08;24.89
39051;BME280;24805;55.852;37.644;2023-02-05T11:17:08;100315.53;;;15.28;24.94
39051;BME280;24805;55.852;37.644;2023-02-05T11:22:27;100320.53;;;14.13;26.71
39051;BME280;24805;55.852;37.644;2023-02-05T11:27:32;100305.00;;;11.18;29.32
39051;BME280;24805;55.852;37.644;2023-02-05T11:32:37;100319.25;;;9.53;31.29
39051;BME280;24805;55.852;37.644;2023-02-05T11:37:39;100325.00;;;8.29;33.03
39051;BME280;24805;55.852;37.644;2023-02-05T11:42:45;100324.63;;;8.05;33.22
39051;BME280;24805;55.852;37.644;2023-02-05T11:47:48;100339.50;;;6.39;36.80
39051;BME280;24805;55.852;37.644;2023-02-05T11:52:51;100327.22;;;5.87;38.38
39051;BME280;24805;55.852;37.644;2023-02-05T11:58:02;100330.47;;;5.59;39.41
39051;BME280;24805;55.852;37.644;2023-02-05T12:03:25;100334.72;;;5.39;40.24
39051;BME280;24805;55.852;37.644;2023-02-05T12:45:54;100347.47;;;4.22;44.21
39051;BME280;24805;55.852;37.644;2023-02-05T12:51:26;100347.00;;;4.17;44.69
39051;BME280;24805;55.852;37.644;2023-02-05T13:01:56;100348.91;;;3.80;45.71
39051;BME280;24805;55.852;37.644;2023-02-05T13:07:10;100347.66;;;3.62;46.25
39051;BME280;24805;55.852;37.644;2023-02-05T13:12:17;100344.38;;;3.47;46.91
39051;BME280;24805;55.852;37.644;2023-02-05T13:17:25;100360.28;;;3.33;47.42
39051;BME280;24805;55.852;37.644;2023-02-05T13:22:46;100359.88;;;3.26;47.70
39051;BME280;24805;55.852;37.644;2023-02-05T13:28:33;100352.69;;;3.17;47.69
39051;BME280;24805;55.852;37.644;2023-02-05T13:33:42;100359.47;;;2.96;48.68
39051;BME280;24805;55.852;37.644;2023-02-05T13:59:44;100378.47;;;2.61;50.76
39051;BME280;24805;55.852;37.644;2023-02-05T14:04:52;100351.03;;;2.29;51.15
39051;BME280;24805;55.852;37.644;2023-02-05T14:09:57;100379.94;;;2.40;51.92
39051;BME280;24805;55.852;37.644;2023-02-05T14:15:22;100388.34;;;2.45;51.48
39051;BME280;24805;55.852;37.644;2023-02-05T14:36:24;100398.47;;;1.99;53.82
39051;BME280;24805;55.852;37.644;2023-02-05T14:41:28;100400.25;;;1.98;53.32
39051;BME280;24805;55.852;37.644;2023-02-05T14:46:40;100414.28;;;1.97;53.42
39051;BME280;24805;55.852;37.644;2023-02-05T14:51:50;100415.09;;;1.98;53.52
39051;BME280;24805;55.852;37.644;2023-02-05T15:08:07;100416.81;;;1.72;53.47
39051;BME280;24805;55.852;37.644;2023-02-05T15:13:11;100426.69;;;1.54;53.93
39051;BME280;24805;55.852;37.644;2023-02-05T15:18:28;100426.47;;;1.57;54.71
39051;BME280;24805;55.852;37.644;2023-02-05T15:23:40;100426.88;;;1.51;54.07
39051;BME280;24805;55.852;37.644;2023-02-05T15:28:57;100429.47;;;1.51;54.05
39051;BME280;24805;55.852;37.644;2023-02-05T15:45:32;100439.91;;;1.24;54.25
39051;BME280;24805;55.852;37.644;2023-02-05T15:50:55;100448.88;;;1.06;55.26
39051;BME280;24805;55.852;37.644;2023-02-05T15:56:31;100448.97;;;1.04;55.10
39051;BME280;24805;55.852;37.644;2023-02-05T16:01:39;100454.31;;;0.89;55.32
39051;BME280;24805;55.852;37.644;2023-02-05T16:06:45;100451.69;;;0.89;55.03
39051;BME280;24805;55.852;37.644;2023-02-05T16:11:48;100440.50;;;0.87;54.85
39051;BME280;24805;55.852;37.644;2023-02-05T16:27:19;100428.19;;;0.89;53.91
39051;BME280;24805;55.852;37.644;2023-02-05T16:37:46;100457.00;;;0.87;54.01
39051;BME280;24805;55.852;37.644;2023-02-05T16:42:49;100450.38;;;0.82;54.70
39051;BME280;24805;55.852;37.644;2023-02-05T16:53:20;100444.31;;;0.67;55.57
39051;BME280;24805;55.852;37.644;2023-02-05T16:58:25;100469.59;;;0.66;55.80
39051;BME280;24805;55.852;37.644;2023-02-05T17:03:38;100473.41;;;0.61;56.51
39051;BME280;24805;55.852;37.644;2023-02-05T17:08:41;100476.34;;;0.41;56.49
39051;BME280;24805;55.852;37.644;2023-02-05T17:13:47;100481.84;;;0.36;56.95
39051;BME280;24805;55.852;37.644;2023-02-05T17:23:56;100482.78;;;0.35;57.61
39051;BME280;24805;55.852;37.644;2023-02-05T17:29:03;100490.25;;;0.41;57.35
39051;BME280;24805;55.852;37.644;2023-02-05T17:34:06;100495.47;;;0.41;57.37
39051;BME280;24805;55.852;37.644;2023-02-05T17:39:08;100509.00;;;0.48;57.48
39051;BME280;24805;55.852;37.644;2023-02-05T17:44:13;100504.38;;;0.53;57.76
39051;BME280;24805;55.852;37.644;2023-02-05T17:49:16;100506.63;;;0.59;57.65
39051;BME280;24805;55.852;37.644;2023-02-05T17:54:24;100506.06;;;0.68;57.89
39051;BME280;24805;55.852;37.644;2023-02-05T17:59:26;100510.91;;;0.60;57.57
39051;BME280;24805;55.852;37.644;2023-02-05T18:04:28;100512.69;;;0.59;57.30
39051;BME280;24805;55.852;37.644;2023-02-05T18:09:30;100519.56;;;0.60;57.70
39051;BME280;24805;55.852;37.644;2023-02-05T18:14:32;100520.97;;;0.66;57.85
39051;BME280;24805;55.852;37.644;2023-02-05T18:19:34;100512.88;;;0.71;57.66
39051;BME280;24805;55.852;37.644;2023-02-05T18:24:37;100503.09;;;0.74;57.67
39051;BME280;24805;55.852;37.644;2023-02-05T18:29:39;100522.56;;;0.68;57.78
39051;BME280;24805;55.852;37.644;2023-02-05T18:34:44;100520.22;;;0.64;57.78
39051;BME280;24805;55.852;37.644;2023-02-05T18:39:46;100519.00;;;0.55;57.46
39051;BME280;24805;55.852;37.644;2023-02-05T18:44:49;100517.09;;;0.43;57.62
39051;BME280;24805;55.852;37.644;2023-02-05T18:49:51;100533.69;;;0.42;57.94
39051;BME280;24805;55.852;37.644;2023-02-05T18:54:56;100535.66;;;0.39;57.77
39051;BME280;24805;55.852;37.644;2023-02-05T18:59:58;100532.22;;;0.38;57.63
39051;BME280;24805;55.852;37.644;2023-02-05T19:05:00;100531.16;;;0.41;57.88
39051;BME280;24805;55.852;37.644;2023-02-05T19:10:04;100506.88;;;0.24;57.67
39051;BME280;24805;55.852;37.644;2023-02-05T19:15:08;100541.22;;;0.32;57.42
39051;BME280;24805;55.852;37.644;2023-02-05T19:20:13;100513.56;;;0.14;57.94
39051;BME280;24805;55.852;37.644;2023-02-05T19:25:18;100546.69;;;0.28;57.68
39051;BME280;24805;55.852;37.644;2023-02-05T19:30:26;100550.41;;;0.24;57.68
39051;BME280;24805;55.852;37.644;2023-02-05T19:35:28;100550.78;;;0.18;57.88
39051;BME280;24805;55.852;37.644;2023-02-05T19:40:30;100561.78;;;0.23;58.19
39051;BME280;24805;55.852;37.644;2023-02-05T19:45:36;100541.31;;;0.31;57.64
39051;BME280;24805;55.852;37.644;2023-02-05T19:50:39;100557.16;;;0.28;57.24
39051;BME280;24805;55.852;37.644;2023-02-05T19:55:41;100555.47;;;0.27;57.28
39051;BME280;24805;55.852;37.644;2023-02-05T20:00:43;100529.91;;;0.18;57.08
39051;BME280;24805;55.852;37.644;2023-02-05T20:05:45;100554.44;;;0.29;56.94
39051;BME280;24805;55.852;37.644;2023-02-05T20:10:58;100555.50;;;0.41;57.36
39051;BME280;24805;55.852;37.644;2023-02-05T20:16:02;100563.78;;;0.33;57.49
39051;BME280;24805;55.852;37.644;2023-02-05T20:21:09;100585.25;;;0.39;56.80
39051;BME280;24805;55.852;37.644;2023-02-05T20:26:14;100584.09;;;0.28;56.93
39051;BME280;24805;55.852;37.644;2023-02-05T20:31:19;100590.41;;;0.24;56.80
39051;BME280;24805;55.852;37.644;2023-02-05T20:36:34;100593.59;;;0.29;56.43
39051;BME280;24805;55.852;37.644;2023-02-05T20:41:36;100596.03;;;0.32;56.22
39051;BME280;24805;55.852;37.644;2023-02-05T20:46:38;100595.19;;;0.32;55.94
39051;BME280;24805;55.852;37.644;2023-02-05T20:51:42;100594.19;;;0.34;56.17
39051;BME280;24805;55.852;37.644;2023-02-05T20:56:44;100595.19;;;0.32;55.50
39051;BME280;24805;55.852;37.644;2023-02-05T21:01:46;100593.00;;;0.24;55.44
39051;BME280;24805;55.852;37.644;2023-02-05T21:06:48;100595.91;;;0.20;55.48
39051;BME280;24805;55.852;37.644;2023-02-05T21:11:50;100597.75;;;0.18;55.59
39051;BME280;24805;55.852;37.644;2023-02-05T21:16:56;100600.16;;;0.21;55.47
39051;BME280;24805;55.852;37.644;2023-02-05T21:21:58;100608.75;;;0.23;54.96
39051;BME280;24805;55.852;37.644;2023-02-05T21:27:01;100606.97;;;0.23;55.66
39051;BME280;24805;55.852;37.644;2023-02-05T21:32:03;100603.63;;;0.21;54.89
39051;BME280;24805;55.852;37.644;2023-02-05T21:37:05;100597.16;;;0.13;54.27
39051;BME280;24805;55.852;37.644;2023-02-05T21:42:07;100599.94;;;0.10;54.79
39051;BME280;24805;55.852;37.644;2023-02-05T21:47:10;100606.16;;;0.07;55.06
39051;BME280;24805;55.852;37.644;2023-02-05T21:52:12;100608.84;;;0.06;54.14
39051;BME280;24805;55.852;37.644;2023-02-05T21:57:14;100607.16;;;0.05;54.32
39051;BME280;24805;55.852;37.644;2023-02-05T22:02:16;100613.38;;;0.02;54.27
39051;BME280;24805;55.852;37.644;2023-02-05T22:07:18;100617.13;;;-0.02;53.98
39051;BME280;24805;55.852;37.644;2023-02-05T22:12:21;100613.16;;;-0.09;53.69
39051;BME280;24805;55.852;37.644;2023-02-05T22:17:23;100610.53;;;-0.09;53.86
39051;BME280;24805;55.852;37.644;2023-02-05T22:22:25;100617.59;;;-0.11;54.05
39051;BME280;24805;55.852;37.644;2023-02-05T22:27:27;100616.00;;;-0.14;53.88
39051;BME280;24805;55.852;37.644;2023-02-05T22:32:30;100622.06;;;-0.13;54.04
39051;BME280;24805;55.852;37.644;2023-02-05T22:37:32;100622.81;;;-0.11;53.37
39051;BME280;24805;55.852;37.644;2023-02-05T22:42:35;100622.38;;;-0.19;53.85
39051;BME280;24805;55.852;37.644;2023-02-05T22:47:37;100622.56;;;-0.22;53.38
39051;BME280;24805;55.852;37.644;2023-02-05T22:52:39;100628.94;;;-0.28;52.95
39051;BME280;24805;55.852;37.644;2023-02-05T22:57:41;100625.56;;;-0.30;53.54
39051;BME280;24805;55.852;37.644;2023-02-05T23:02:43;100634.16;;;-0.28;53.19
39051;BME280;24805;55.852;37.644;2023-02-05T23:07:49;100641.06;;;-0.27;53.10
39051;BME280;24805;55.852;37.644;2023-02-05T23:12:52;100639.69;;;-0.34;53.39
39051;BME280;24805;55.852;37.644;2023-02-05T23:17:54;100618.56;;;-0.45;53.83
39051;BME280;24805;55.852;37.644;2023-02-05T23:22:56;100644.97;;;-0.36;53.37
39051;BME280;24805;55.852;37.644;2023-02-05T23:27:58;100636.59;;;-0.41;53.33
39051;BME280;24805;55.852;37.644;2023-02-05T23:33:00;100641.69;;;-0.39;53.52
39051;BME280;24805;55.852;37.644;2023-02-05T23:38:02;100644.56;;;-0.44;53.24
39051;BME280;24805;55.852;37.644;2023-02-05T23:43:04;100643.97;;;-0.49;52.86
39051;BME280;24805;55.852;37.644;2023-02-05T23:48:07;100643.97;;;-0.49;53.05
39051;BME280;24805;55.852;37.644;2023-02-05T23:53:10;100637.97;;;-0.51;53.16
39051;BME280;24805;55.852;37.644;2023-02-05T23:58:12;100638.59;;;-0.46;53.03
